Costa Diadema — IBCX — position and weather

sailwx.info

Track history (hours):
 
Tides and Currents Weather Stations Pressure Air Temp Water Temp Dewpoint Dewpoint Depression Visibility Wind Speed Wind Dir Waves Ship Positions

Costa Diadema

Last reported at 2018-Apr-25 00:49 UTC. Time now 2018-Apr-25 06:42 UTC.
Position N 38°50' E 005°00'.

Length 304 m; draft 8.5 m.

Type: Passenger vessel. MMSI: 247353700.

Date/timePositionNaut miles runAvg speedWind from/ knotsBaromVisibWave heightAir tempDewpointWater temp
2018-Apr-25 00:49N 38°50' E 005°00'515.5
2018-Apr-25 00:28N 38°50' E 004°53'815.3
2018-Apr-24 23:57N 38°51' E 004°43'715.5
2018-Apr-24 23:30N 38°51' E 004°34'815.0
2018-Apr-24 22:57N 38°52' E 004°24'714.9
2018-Apr-24 22:27N 38°52' E 004°14'714.8
2018-Apr-24 22:00N 38°53' E 004°06'714.7
2018-Apr-24 21:30N 38°54' E 003°56'714.5
2018-Apr-24 21:00N 38°55' E 003°47'714.4
2018-Apr-24 20:30N 38°55' E 003°38'714.4
2018-Apr-24 20:00N 38°55' E 003°29'714.1
2018-Apr-24 19:30N 38°56' E 003°20'714.1
2018-Apr-24 18:59N 38°56' E 003°10'713.9
2018-Apr-24 18:30N 38°57' E 003°02'713.5
2018-Apr-24 18:00N 38°59' E 002°53'815.6
2018-Apr-24 17:30N 39°06' E 002°50'815.5
2018-Apr-24 17:01N 39°14' E 002°46'816.0
2018-Apr-24 16:31N 39°21' E 002°42'815.6
2018-Apr-24 16:01N 39°28' E 002°39'5 9.9
2018-Apr-24 15:30N 39°33' E 002°38'1 1.7
2018-Apr-24 14:58N 39°33' E 002°38'0 0.0
2018-Apr-24 14:28N 39°33' E 002°38'0 0.0
2018-Apr-24 13:58N 39°33' E 002°38'0 0.0
2018-Apr-24 13:28N 39°33' E 002°38'0 0.0
2018-Apr-24 12:58N 39°33' E 002°38'0 0.0
2018-Apr-24 12:28N 39°33' E 002°38'0 0.0
2018-Apr-24 11:55N 39°33' E 002°38'0 0.0
2018-Apr-24 11:28N 39°33' E 002°38'0 0.0
2018-Apr-24 10:58N 39°33' E 002°38'0 0.0
2018-Apr-24 10:28N 39°33' E 002°38'0 0.0
2018-Apr-24 09:58N 39°33' E 002°38'0 0.0
2018-Apr-24 09:28N 39°33' E 002°38'0 0.0
2018-Apr-24 08:58N 39°33' E 002°38'0 0.0
2018-Apr-24 08:28N 39°33' E 002°38'0 0.1
2018-Apr-24 07:58N 39°33' E 002°38'0 0.1
2018-Apr-24 07:28N 39°33' E 002°38'0 0.0
2018-Apr-24 06:58N 39°33' E 002°38'0 0.1
2018-Apr-24 06:30N 39°33' E 002°38'1 2.2
2018-Apr-24 06:00N 39°32' E 002°39'4 8.3
2018-Apr-24 05:30N 39°28' E 002°36'510.2
2018-Apr-24 05:00N 39°25' E 002°31'4 8.1
2018-Apr-24 04:30N 39°24' E 002°26'4 8.5
2018-Apr-24 04:00N 39°28' E 002°23'4410.4
2018-Apr-23 23:47N 40°11' E 002°13'710.7
2018-Apr-23 23:07N 40°18' E 002°13'110.6
2018-Apr-23 23:00N 40°19' E 002°13'1610.9
2018-Apr-23 21:34N 40°35' E 002°12'111.0
2018-Apr-23 21:30N 40°36' E 002°12'611.0
2018-Apr-23 21:00N 40°41' E 002°12'611.4
2018-Apr-23 20:30N 40°47' E 002°12'611.4
2018-Apr-23 20:00N 40°52' E 002°12'510.9
2018-Apr-23 19:30N 40°58' E 002°11'611.2
2018-Apr-23 19:00N 41°03' E 002°11'611.1
2018-Apr-23 18:30N 41°09' E 002°11'510.8
2018-Apr-23 18:00N 41°14' E 002°11'510.2
2018-Apr-23 17:30N 41°19' E 002°10'2 3.0
2018-Apr-23 16:57N 41°21' E 002°10'0 0.0
2018-Apr-23 16:30N 41°21' E 002°10'0 0.0
2018-Apr-23 16:00N 41°21' E 002°10'0 0.0
2018-Apr-23 15:30N 41°21' E 002°10'0 0.0
2018-Apr-23 15:00N 41°21' E 002°10'0 0.0
2018-Apr-23 14:30N 41°21' E 002°10'0 0.0
2018-Apr-23 14:00N 41°21' E 002°10'0 0.0
2018-Apr-23 13:24N 41°21' E 002°10'0 0.0
2018-Apr-23 13:00N 41°21' E 002°10'0 0.0
2018-Apr-23 12:30N 41°21' E 002°10'0 0.0
2018-Apr-23 12:00N 41°21' E 002°10'0 0.0
2018-Apr-23 11:30N 41°21' E 002°10'0 0.0
2018-Apr-23 11:00N 41°21' E 002°10'0 0.0
2018-Apr-23 10:30N 41°21' E 002°10'0 0.0
2018-Apr-23 10:00N 41°21' E 002°10'0 0.0
2018-Apr-23 09:27N 41°21' E 002°10'0 0.0
2018-Apr-23 09:00N 41°21' E 002°10'0 0.0
2018-Apr-23 08:30N 41°21' E 002°10'0 0.0
2018-Apr-23 08:00N 41°21' E 002°10'0 0.0
2018-Apr-23 07:30N 41°21' E 002°10'0 0.0
2018-Apr-23 07:00N 41°21' E 002°10'0 0.3
2018-Apr-23 06:30N 41°21' E 002°10'2 4.3
2018-Apr-23 06:00N 41°19' E 002°10'5 9.2
2018-Apr-23 05:30N 41°16' E 002°15'613.0
2018-Apr-23 05:00N 41°18' E 002°23'713.5
2018-Apr-23 04:30N 41°22' E 002°30'713.5
2018-Apr-23 04:00N 41°26' E 002°37'2113.2
2018-Apr-23 02:24N 41°39' E 002°60'6013.4
2018-Apr-22 21:55N 42°19' E 003°60'513.1
2018-Apr-22 21:30N 42°23' E 004°04'713.0
2018-Apr-22 20:59N 42°28' E 004°11'613.0
2018-Apr-22 20:31N 42°32' E 004°17'713.4
2018-Apr-22 20:00N 42°37' E 004°23'713.7
2018-Apr-22 19:31N 42°42' E 004°30'713.5
2018-Apr-22 19:01N 42°47' E 004°36'713.5
2018-Apr-22 18:30N 42°52' E 004°43'613.1
2018-Apr-22 18:01N 42°56' E 004°49'713.0
2018-Apr-22 17:30N 43°01' E 004°55'712.9
2018-Apr-22 16:57N 43°06' E 005°01'613.0
2018-Apr-22 16:30N 43°11' E 005°06'713.0
2018-Apr-22 16:00N 43°17' E 005°10'612.4
2018-Apr-22 15:29N 43°20' E 005°18'2 3.0
2018-Apr-22 14:55N 43°21' E 005°20'0 0.0
2018-Apr-22 14:28N 43°21' E 005°20'0 0.0
2018-Apr-22 14:01N 43°21' E 005°20'0 0.0
2018-Apr-22 13:31N 43°21' E 005°20'0 0.0
2018-Apr-22 13:01N 43°21' E 005°20'0 0.0
2018-Apr-22 12:31N 43°21' E 005°20'0 0.0
2018-Apr-22 11:58N 43°21' E 005°20'0 0.0
2018-Apr-22 11:28N 43°21' E 005°20'0 0.0
2018-Apr-22 11:01N 43°21' E 005°20'0 0.0
2018-Apr-22 10:31N 43°21' E 005°20'0 0.0
2018-Apr-22 10:01N 43°21' E 005°20'0 0.0
2018-Apr-22 09:31N 43°21' E 005°20'0 0.0
2018-Apr-22 09:01N 43°21' E 005°20'0 0.0
2018-Apr-22 08:31N 43°21' E 005°20'0 0.0
2018-Apr-22 07:58N 43°21' E 005°20'0 0.0
2018-Apr-22 07:31N 43°21' E 005°20'0 0.0
2018-Apr-22 06:58N 43°21' E 005°20'0 0.0
2018-Apr-22 06:28N 43°21' E 005°20'0 0.0
2018-Apr-22 06:00N 43°21' E 005°20'1 2.8
2018-Apr-22 05:30N 43°21' E 005°18'5 9.3
2018-Apr-22 05:00N 43°18' E 005°13'713.1
2018-Apr-22 04:30N 43°12' E 005°10'815.5
2018-Apr-22 04:00N 43°09' E 005°20'816.1
2018-Apr-22 03:30N 43°06' E 005°30'816.2
2018-Apr-22 03:00N 43°03' E 005°40'816.3
2018-Apr-22 02:30N 43°00' E 005°51'815.8
2018-Apr-22 02:00N 42°58' E 006°01'815.6
2018-Apr-22 01:30N 42°57' E 006°12'2815.6
2018-Apr-21 23:43N 43°05' E 006°48'716.1
2018-Apr-21 23:17N 43°10' E 006°55'416.3
2018-Apr-21 23:00N 43°12' E 007°00'816.0
2018-Apr-21 22:30N 43°17' E 007°09'815.4
2018-Apr-21 22:00N 43°21' E 007°18'816.0
2018-Apr-21 21:30N 43°26' E 007°27'816.5
2018-Apr-21 21:00N 43°31' E 007°36'816.7
2018-Apr-21 20:30N 43°36' E 007°45'816.7
2018-Apr-21 20:00N 43°41' E 007°54'816.0
2018-Apr-21 19:30N 43°46' E 008°03'815.7
2018-Apr-21 19:00N 43°51' E 008°11'713.1
2018-Apr-21 18:30N 43°57' E 008°16'713.0
2018-Apr-21 18:00N 44°02' E 008°21'713.1
2018-Apr-21 17:30N 44°07' E 008°26'713.0
2018-Apr-21 17:00N 44°13' E 008°31'611.5
2018-Apr-21 16:30N 44°19' E 008°31'1 2.1
2018-Apr-21 16:00N 44°19' E 008°29'0 0.0
2018-Apr-21 15:29N 44°19' E 008°29'0 0.0
2018-Apr-21 14:59N 44°19' E 008°29'0 0.0
2018-Apr-21 14:30N 44°19' E 008°29'0 0.0
2018-Apr-21 13:59N 44°19' E 008°29'0 0.0
2018-Apr-21 13:29N 44°19' E 008°29'0 0.0
2018-Apr-21 12:56N 44°19' E 008°29'0 0.0
2018-Apr-21 12:29N 44°19' E 008°29'0 0.0
2018-Apr-21 11:59N 44°19' E 008°29'0 0.0
2018-Apr-21 11:29N 44°19' E 008°29'0 0.0
2018-Apr-21 10:59N 44°19' E 008°29'0 0.0
2018-Apr-21 10:30N 44°19' E 008°29'0 0.0
2018-Apr-21 09:59N 44°19' E 008°29'0 0.0
2018-Apr-21 09:29N 44°19' E 008°29'0 0.0
2018-Apr-21 08:59N 44°19' E 008°29'0 0.0
2018-Apr-21 08:29N 44°19' E 008°29'0 0.0
2018-Apr-21 07:59N 44°19' E 008°29'0 0.0
2018-Apr-21 07:30N 44°19' E 008°29'0 0.0
2018-Apr-21 06:59N 44°19' E 008°29'0 0.0
2018-Apr-21 06:29N 44°19' E 008°29'0 0.0
2018-Apr-21 05:59N 44°19' E 008°29'0 0.0
2018-Apr-21 05:30N 44°19' E 008°29'1 2.6
2018-Apr-21 05:01N 44°19' E 008°31'510.5
2018-Apr-21 04:30N 44°15' E 008°35'815.3
2018-Apr-21 04:00N 44°08' E 008°41'713.7
2018-Apr-21 03:31N 44°03' E 008°46'1019.9
2018-Apr-21 03:00N 43°54' E 008°53'1020.0
2018-Apr-21 02:31N 43°46' E 009°01'1020.2
2018-Apr-21 02:01N 43°37' E 009°08'1020.6
2018-Apr-21 01:31N 43°28' E 009°15'1020.7
2018-Apr-21 01:01N 43°20' E 009°23'1020.3
2018-Apr-21 00:31N 43°11' E 009°31'1019.6
2018-Apr-21 00:00N 43°03' E 009°37'1019.9
2018-Apr-20 23:31N 42°54' E 009°43'1019.6
2018-Apr-20 23:00N 42°47' E 009°53'1019.5
2018-Apr-20 22:30N 42°42' E 010°05'263 9.2
2018-Apr-19 17:54N 39°04' E 013°19'718.1
2018-Apr-19 17:31N 38°57' E 013°22'917.9
2018-Apr-19 17:01N 38°49' E 013°27'917.2
2018-Apr-19 16:30N 38°40' E 013°30'917.7
2018-Apr-19 16:00N 38°32' E 013°29'917.5
2018-Apr-19 15:30N 38°23' E 013°28'917.5
2018-Apr-19 15:00N 38°14' E 013°27'713.8
2018-Apr-19 14:30N 38°08' E 013°24'2 3.6
2018-Apr-19 14:00N 38°08' E 013°22'0 0.0
2018-Apr-19 13:30N 38°08' E 013°22'0 0.0
2018-Apr-19 13:00N 38°08' E 013°22'0 0.0
2018-Apr-19 12:27N 38°08' E 013°22'0 0.0
2018-Apr-19 12:00N 38°08' E 013°22'0 0.0
2018-Apr-19 11:30N 38°08' E 013°22'0 0.0
2018-Apr-19 11:00N 38°08' E 013°22'0 0.0
2018-Apr-19 10:30N 38°08' E 013°22'0 0.0
2018-Apr-19 10:00N 38°08' E 013°22'0 0.0
2018-Apr-19 09:30N 38°08' E 013°22'0 0.0
2018-Apr-19 09:00N 38°08' E 013°22'0 0.0
2018-Apr-19 08:30N 38°08' E 013°22'0 0.0
2018-Apr-19 08:00N 38°08' E 013°22'0 0.0
2018-Apr-19 07:30N 38°08' E 013°22'0 0.0
2018-Apr-19 07:00N 38°08' E 013°22'0 0.0
2018-Apr-19 06:30N 38°08' E 013°22'0 0.0
2018-Apr-19 06:00N 38°08' E 013°22'0 0.7
2018-Apr-19 05:30N 38°08' E 013°22'1 1.8
2018-Apr-19 05:01N 38°08' E 013°24'4 8.9
2018-Apr-19 04:31N 38°12' E 013°25'510.3
2018-Apr-19 04:01N 38°16' E 013°21'510.6
2018-Apr-19 03:30N 38°18' E 013°15'611.2
2018-Apr-19 03:01N 38°19' E 013°08'510.9
2018-Apr-19 02:31N 38°20' E 013°01'510.2
2018-Apr-19 02:00N 38°20' E 012°54'510.3
2018-Apr-19 01:30N 38°20' E 012°48'611.9
2018-Apr-19 01:01N 38°21' E 012°40'612.3
2018-Apr-19 00:31N 38°21' E 012°32'712.5
2018-Apr-18 23:59N 38°22' E 012°24'612.4
2018-Apr-18 23:28N 38°22' E 012°16'612.2
2018-Apr-18 22:59N 38°22' E 012°08'15413.7
2018-Apr-18 11:41N 38°35' E 008°52'314.8
2018-Apr-18 11:28N 38°35' E 008°48'815.2
2018-Apr-18 10:58N 38°36' E 008°38'19115.7
2018-Apr-17 22:47N 38°51' E 004°34'515.7
2018-Apr-17 22:29N 38°52' E 004°28'1215.9
2018-Apr-17 21:45N 38°53' E 004°13'516.0
2018-Apr-17 21:26N 38°53' E 004°06'715.8
2018-Apr-17 21:00N 38°54' E 003°58'815.5
2018-Apr-17 20:30N 38°54' E 003°48'815.4
2018-Apr-17 20:00N 38°55' E 003°38'815.6
2018-Apr-17 19:30N 38°55' E 003°28'815.5
2018-Apr-17 19:00N 38°56' E 003°18'815.5
2018-Apr-17 18:30N 38°57' E 003°08'815.5
2018-Apr-17 18:00N 38°57' E 002°58'714.3
2018-Apr-17 17:30N 39°02' E 002°52'815.7
2018-Apr-17 17:00N 39°10' E 002°48'815.3
2018-Apr-17 16:30N 39°17' E 002°45'815.2
2018-Apr-17 16:00N 39°24' E 002°41'714.4
2018-Apr-17 15:30N 39°31' E 002°39'2 4.7
2018-Apr-17 15:00N 39°33' E 002°38'0 0.0
2018-Apr-17 14:30N 39°33' E 002°38'0 0.0
2018-Apr-17 14:00N 39°33' E 002°38'0 0.0
2018-Apr-17 13:30N 39°33' E 002°38'0 0.0
2018-Apr-17 13:00N 39°33' E 002°38'0 0.0
2018-Apr-17 12:30N 39°33' E 002°38'0 0.0
2018-Apr-17 12:00N 39°33' E 002°38'0 0.0
2018-Apr-17 11:30N 39°33' E 002°38'0 0.0
2018-Apr-17 11:00N 39°33' E 002°38'0 0.0
2018-Apr-17 10:30N 39°33' E 002°38'0 0.0
2018-Apr-17 10:00N 39°33' E 002°38'0 0.0
2018-Apr-17 09:30N 39°33' E 002°38'0 0.0
2018-Apr-17 09:00N 39°33' E 002°38'0 0.0
2018-Apr-17 08:30N 39°33' E 002°38'0 0.0
2018-Apr-17 08:00N 39°33' E 002°38'0 0.0
2018-Apr-17 07:30N 39°33' E 002°38'0 0.0
2018-Apr-17 07:00N 39°33' E 002°38'0 0.3
2018-Apr-17 06:30N 39°33' E 002°38'1 2.4
2018-Apr-17 06:00N 39°32' E 002°39'4 8.1
2018-Apr-17 05:30N 39°28' E 002°36'4 8.7
2018-Apr-17 05:00N 39°25' E 002°33'4 8.4
2018-Apr-17 04:30N 39°25' E 002°27'510.2
2018-Apr-17 04:00N 39°28' E 002°22'8710.7
2018-Apr-16 19:56N 40°54' E 002°12'511.0
2018-Apr-16 19:30N 40°59' E 002°11'611.5
2018-Apr-16 19:01N 41°05' E 002°11'611.4
2018-Apr-16 18:30N 41°10' E 002°11'510.9
2018-Apr-16 18:01N 41°16' E 002°11'5 9.6
2018-Apr-16 17:30N 41°21' E 002°10'0 0.8
2018-Apr-16 16:58N 41°21' E 002°10'0 0.0
2018-Apr-16 16:25N 41°21' E 002°10'0 0.0
2018-Apr-16 15:58N 41°21' E 002°10'0 0.0
2018-Apr-16 15:28N 41°21' E 002°10'0 0.0
2018-Apr-16 14:58N 41°21' E 002°10'0 0.0
2018-Apr-16 14:28N 41°21' E 002°10'0 0.0
2018-Apr-16 13:58N 41°21' E 002°10'0 0.0
2018-Apr-16 13:28N 41°21' E 002°10'0 0.0
2018-Apr-16 12:58N 41°21' E 002°10'0 0.0
2018-Apr-16 12:28N 41°21' E 002°10'0 0.0
2018-Apr-16 11:58N 41°21' E 002°10'0 0.0
2018-Apr-16 11:28N 41°21' E 002°10'0 0.0
2018-Apr-16 10:58N 41°21' E 002°10'0 0.0
2018-Apr-16 10:28N 41°21' E 002°10'0 0.0
2018-Apr-16 09:58N 41°21' E 002°10'0 0.0
2018-Apr-16 09:28N 41°21' E 002°10'0 0.0
2018-Apr-16 08:58N 41°21' E 002°10'0 0.0
2018-Apr-16 08:28N 41°21' E 002°10'0 0.0
2018-Apr-16 07:58N 41°21' E 002°10'0 0.0
2018-Apr-16 07:28N 41°21' E 002°10'0 0.0
2018-Apr-16 06:58N 41°21' E 002°10'0 0.4
2018-Apr-16 06:30N 41°21' E 002°10'2 4.0
2018-Apr-16 06:00N 41°19' E 002°10'5 9.3
2018-Apr-16 05:30N 41°16' E 002°14'612.5
2018-Apr-16 05:00N 41°18' E 002°22'714.1
2018-Apr-16 04:31N 41°22' E 002°30'714.1
2018-Apr-16 04:01N 41°26' E 002°37'814.0
2018-Apr-16 03:27N 41°31' E 002°46'1013.4
2018-Apr-16 02:43N 41°37' E 002°56'313.2
2018-Apr-16 02:30N 41°38' E 002°59'9413.4
2018-Apr-15 19:28N 42°43' E 004°31'613.2
2018-Apr-15 19:00N 42°48' E 004°37'713.5
2018-Apr-15 18:30N 42°52' E 004°44'612.9
2018-Apr-15 18:00N 42°57' E 004°50'712.6
2018-Apr-15 17:27N 43°02' E 004°56'612.8
2018-Apr-15 17:00N 43°06' E 005°01'612.8
2018-Apr-15 16:30N 43°12' E 005°06'612.9
2018-Apr-15 16:00N 43°17' E 005°11'611.8
2018-Apr-15 15:30N 43°20' E 005°18'1 2.8
2018-Apr-15 14:58N 43°21' E 005°20'0 0.0
2018-Apr-15 14:28N 43°21' E 005°20'0 0.0
2018-Apr-15 13:58N 43°21' E 005°20'0 0.0
2018-Apr-15 13:28N 43°21' E 005°20'0 0.0
2018-Apr-15 12:58N 43°21' E 005°20'0 0.0
2018-Apr-15 12:28N 43°21' E 005°20'0 0.0
2018-Apr-15 11:58N 43°21' E 005°20'0 0.0
2018-Apr-15 11:28N 43°21' E 005°20'0 0.0
2018-Apr-15 10:58N 43°21' E 005°20'0 0.0
2018-Apr-15 10:28N 43°21' E 005°20'0 0.0
2018-Apr-15 09:58N 43°21' E 005°20'0 0.0
2018-Apr-15 09:28N 43°21' E 005°20'0 0.0
2018-Apr-15 08:58N 43°21' E 005°20'0 0.0
2018-Apr-15 08:28N 43°21' E 005°20'0 0.0
2018-Apr-15 07:58N 43°21' E 005°20'0 0.0
2018-Apr-15 07:28N 43°21' E 005°20'0 0.0
2018-Apr-15 06:58N 43°21' E 005°20'0 0.0
2018-Apr-15 06:28N 43°21' E 005°20'0 0.2
2018-Apr-15 05:59N 43°21' E 005°20'2 3.8
2018-Apr-15 05:30N 43°21' E 005°17'5 9.2
2018-Apr-15 05:00N 43°18' E 005°13'714.0
2018-Apr-15 04:29N 43°11' E 005°13'  
Track history (hours):
 
Tides and Currents Weather Stations Pressure Air Temp Water Temp Dewpoint Dewpoint Depression Visibility Wind Speed Wind Dir Waves Ship Positions

Costa Diadema

Last reported at 2018-Apr-25 00:49 UTC. Time now 2018-Apr-25 06:42 UTC.
Position N 38°50' E 005°00'.

Length 304 m; draft 8.5 m.

Type: Passenger vessel. MMSI: 247353700.

Date/timePositionNaut miles runAvg speedWind from/ knotsBaromVisibWave heightAir tempDewpointWater temp
2018-Apr-25 00:49N 38°50' E 005°00'515.5
2018-Apr-25 00:28N 38°50' E 004°53'815.3
2018-Apr-24 23:57N 38°51' E 004°43'715.5
2018-Apr-24 23:30N 38°51' E 004°34'815.0
2018-Apr-24 22:57N 38°52' E 004°24'714.9
2018-Apr-24 22:27N 38°52' E 004°14'714.8
2018-Apr-24 22:00N 38°53' E 004°06'714.7
2018-Apr-24 21:30N 38°54' E 003°56'714.5
2018-Apr-24 21:00N 38°55' E 003°47'714.4
2018-Apr-24 20:30N 38°55' E 003°38'714.4
2018-Apr-24 20:00N 38°55' E 003°29'714.1
2018-Apr-24 19:30N 38°56' E 003°20'714.1
2018-Apr-24 18:59N 38°56' E 003°10'713.9
2018-Apr-24 18:30N 38°57' E 003°02'713.5
2018-Apr-24 18:00N 38°59' E 002°53'815.6
2018-Apr-24 17:30N 39°06' E 002°50'815.5
2018-Apr-24 17:01N 39°14' E 002°46'816.0
2018-Apr-24 16:31N 39°21' E 002°42'815.6
2018-Apr-24 16:01N 39°28' E 002°39'5 9.9
2018-Apr-24 15:30N 39°33' E 002°38'1 1.7
2018-Apr-24 14:58N 39°33' E 002°38'0 0.0
2018-Apr-24 14:28N 39°33' E 002°38'0 0.0
2018-Apr-24 13:58N 39°33' E 002°38'0 0.0
2018-Apr-24 13:28N 39°33' E 002°38'0 0.0
2018-Apr-24 12:58N 39°33' E 002°38'0 0.0
2018-Apr-24 12:28N 39°33' E 002°38'0 0.0
2018-Apr-24 11:55N 39°33' E 002°38'0 0.0
2018-Apr-24 11:28N 39°33' E 002°38'0 0.0
2018-Apr-24 10:58N 39°33' E 002°38'0 0.0
2018-Apr-24 10:28N 39°33' E 002°38'0 0.0
2018-Apr-24 09:58N 39°33' E 002°38'0 0.0
2018-Apr-24 09:28N 39°33' E 002°38'0 0.0
2018-Apr-24 08:58N 39°33' E 002°38'0 0.0
2018-Apr-24 08:28N 39°33' E 002°38'0 0.1
2018-Apr-24 07:58N 39°33' E 002°38'0 0.1
2018-Apr-24 07:28N 39°33' E 002°38'0 0.0
2018-Apr-24 06:58N 39°33' E 002°38'0 0.1
2018-Apr-24 06:30N 39°33' E 002°38'1 2.2
2018-Apr-24 06:00N 39°32' E 002°39'4 8.3
2018-Apr-24 05:30N 39°28' E 002°36'510.2
2018-Apr-24 05:00N 39°25' E 002°31'4 8.1
2018-Apr-24 04:30N 39°24' E 002°26'4 8.5
2018-Apr-24 04:00N 39°28' E 002°23'4410.4
2018-Apr-23 23:47N 40°11' E 002°13'710.7
2018-Apr-23 23:07N 40°18' E 002°13'110.6
2018-Apr-23 23:00N 40°19' E 002°13'1610.9
2018-Apr-23 21:34N 40°35' E 002°12'111.0
2018-Apr-23 21:30N 40°36' E 002°12'611.0
2018-Apr-23 21:00N 40°41' E 002°12'611.4
2018-Apr-23 20:30N 40°47' E 002°12'611.4
2018-Apr-23 20:00N 40°52' E 002°12'510.9
2018-Apr-23 19:30N 40°58' E 002°11'611.2
2018-Apr-23 19:00N 41°03' E 002°11'611.1
2018-Apr-23 18:30N 41°09' E 002°11'510.8
2018-Apr-23 18:00N 41°14' E 002°11'510.2
2018-Apr-23 17:30N 41°19' E 002°10'2 3.0
2018-Apr-23 16:57N 41°21' E 002°10'0 0.0
2018-Apr-23 16:30N 41°21' E 002°10'0 0.0
2018-Apr-23 16:00N 41°21' E 002°10'0 0.0
2018-Apr-23 15:30N 41°21' E 002°10'0 0.0
2018-Apr-23 15:00N 41°21' E 002°10'0 0.0
2018-Apr-23 14:30N 41°21' E 002°10'0 0.0
2018-Apr-23 14:00N 41°21' E 002°10'0 0.0
2018-Apr-23 13:24N 41°21' E 002°10'0 0.0
2018-Apr-23 13:00N 41°21' E 002°10'0 0.0
2018-Apr-23 12:30N 41°21' E 002°10'0 0.0
2018-Apr-23 12:00N 41°21' E 002°10'0 0.0
2018-Apr-23 11:30N 41°21' E 002°10'0 0.0
2018-Apr-23 11:00N 41°21' E 002°10'0 0.0
2018-Apr-23 10:30N 41°21' E 002°10'0 0.0
2018-Apr-23 10:00N 41°21' E 002°10'0 0.0
2018-Apr-23 09:27N 41°21' E 002°10'0 0.0
2018-Apr-23 09:00N 41°21' E 002°10'0 0.0
2018-Apr-23 08:30N 41°21' E 002°10'0 0.0
2018-Apr-23 08:00N 41°21' E 002°10'0 0.0
2018-Apr-23 07:30N 41°21' E 002°10'0 0.0
2018-Apr-23 07:00N 41°21' E 002°10'0 0.3
2018-Apr-23 06:30N 41°21' E 002°10'2 4.3
2018-Apr-23 06:00N 41°19' E 002°10'5 9.2
2018-Apr-23 05:30N 41°16' E 002°15'613.0
2018-Apr-23 05:00N 41°18' E 002°23'713.5
2018-Apr-23 04:30N 41°22' E 002°30'713.5
2018-Apr-23 04:00N 41°26' E 002°37'2113.2
2018-Apr-23 02:24N 41°39' E 002°60'6013.4
2018-Apr-22 21:55N 42°19' E 003°60'513.1
2018-Apr-22 21:30N 42°23' E 004°04'713.0
2018-Apr-22 20:59N 42°28' E 004°11'613.0
2018-Apr-22 20:31N 42°32' E 004°17'713.4
2018-Apr-22 20:00N 42°37' E 004°23'713.7
2018-Apr-22 19:31N 42°42' E 004°30'713.5
2018-Apr-22 19:01N 42°47' E 004°36'713.5
2018-Apr-22 18:30N 42°52' E 004°43'613.1
2018-Apr-22 18:01N 42°56' E 004°49'713.0
2018-Apr-22 17:30N 43°01' E 004°55'712.9
2018-Apr-22 16:57N 43°06' E 005°01'613.0
2018-Apr-22 16:30N 43°11' E 005°06'713.0
2018-Apr-22 16:00N 43°17' E 005°10'612.4
2018-Apr-22 15:29N 43°20' E 005°18'2 3.0
2018-Apr-22 14:55N 43°21' E 005°20'0 0.0
2018-Apr-22 14:28N 43°21' E 005°20'0 0.0
2018-Apr-22 14:01N 43°21' E 005°20'0 0.0
2018-Apr-22 13:31N 43°21' E 005°20'0 0.0
2018-Apr-22 13:01N 43°21' E 005°20'0 0.0
2018-Apr-22 12:31N 43°21' E 005°20'0 0.0
2018-Apr-22 11:58N 43°21' E 005°20'0 0.0
2018-Apr-22 11:28N 43°21' E 005°20'0 0.0
2018-Apr-22 11:01N 43°21' E 005°20'0 0.0
2018-Apr-22 10:31N 43°21' E 005°20'0 0.0
2018-Apr-22 10:01N 43°21' E 005°20'0 0.0
2018-Apr-22 09:31N 43°21' E 005°20'0 0.0
2018-Apr-22 09:01N 43°21' E 005°20'0 0.0
2018-Apr-22 08:31N 43°21' E 005°20'0 0.0
2018-Apr-22 07:58N 43°21' E 005°20'0 0.0
2018-Apr-22 07:31N 43°21' E 005°20'0 0.0
2018-Apr-22 06:58N 43°21' E 005°20'0 0.0
2018-Apr-22 06:28N 43°21' E 005°20'0 0.0
2018-Apr-22 06:00N 43°21' E 005°20'1 2.8
2018-Apr-22 05:30N 43°21' E 005°18'5 9.3
2018-Apr-22 05:00N 43°18' E 005°13'713.1
2018-Apr-22 04:30N 43°12' E 005°10'815.5
2018-Apr-22 04:00N 43°09' E 005°20'816.1
2018-Apr-22 03:30N 43°06' E 005°30'816.2
2018-Apr-22 03:00N 43°03' E 005°40'816.3
2018-Apr-22 02:30N 43°00' E 005°51'815.8
2018-Apr-22 02:00N 42°58' E 006°01'815.6
2018-Apr-22 01:30N 42°57' E 006°12'2815.6
2018-Apr-21 23:43N 43°05' E 006°48'716.1
2018-Apr-21 23:17N 43°10' E 006°55'416.3
2018-Apr-21 23:00N 43°12' E 007°00'816.0
2018-Apr-21 22:30N 43°17' E 007°09'815.4
2018-Apr-21 22:00N 43°21' E 007°18'816.0
2018-Apr-21 21:30N 43°26' E 007°27'816.5
2018-Apr-21 21:00N 43°31' E 007°36'816.7
2018-Apr-21 20:30N 43°36' E 007°45'816.7
2018-Apr-21 20:00N 43°41' E 007°54'816.0
2018-Apr-21 19:30N 43°46' E 008°03'815.7
2018-Apr-21 19:00N 43°51' E 008°11'713.1
2018-Apr-21 18:30N 43°57' E 008°16'713.0
2018-Apr-21 18:00N 44°02' E 008°21'713.1
2018-Apr-21 17:30N 44°07' E 008°26'713.0
2018-Apr-21 17:00N 44°13' E 008°31'611.5
2018-Apr-21 16:30N 44°19' E 008°31'1 2.1
2018-Apr-21 16:00N 44°19' E 008°29'0 0.0
2018-Apr-21 15:29N 44°19' E 008°29'0 0.0
2018-Apr-21 14:59N 44°19' E 008°29'0 0.0
2018-Apr-21 14:30N 44°19' E 008°29'0 0.0
2018-Apr-21 13:59N 44°19' E 008°29'0 0.0
2018-Apr-21 13:29N 44°19' E 008°29'0 0.0
2018-Apr-21 12:56N 44°19' E 008°29'0 0.0
2018-Apr-21 12:29N 44°19' E 008°29'0 0.0
2018-Apr-21 11:59N 44°19' E 008°29'0 0.0
2018-Apr-21 11:29N 44°19' E 008°29'0 0.0
2018-Apr-21 10:59N 44°19' E 008°29'0 0.0
2018-Apr-21 10:30N 44°19' E 008°29'0 0.0
2018-Apr-21 09:59N 44°19' E 008°29'0 0.0
2018-Apr-21 09:29N 44°19' E 008°29'0 0.0
2018-Apr-21 08:59N 44°19' E 008°29'0 0.0
2018-Apr-21 08:29N 44°19' E 008°29'0 0.0
2018-Apr-21 07:59N 44°19' E 008°29'0 0.0
2018-Apr-21 07:30N 44°19' E 008°29'0 0.0
2018-Apr-21 06:59N 44°19' E 008°29'0 0.0
2018-Apr-21 06:29N 44°19' E 008°29'0 0.0
2018-Apr-21 05:59N 44°19' E 008°29'0 0.0
2018-Apr-21 05:30N 44°19' E 008°29'1 2.6
2018-Apr-21 05:01N 44°19' E 008°31'510.5
2018-Apr-21 04:30N 44°15' E 008°35'815.3
2018-Apr-21 04:00N 44°08' E 008°41'713.7
2018-Apr-21 03:31N 44°03' E 008°46'1019.9
2018-Apr-21 03:00N 43°54' E 008°53'1020.0
2018-Apr-21 02:31N 43°46' E 009°01'1020.2
2018-Apr-21 02:01N 43°37' E 009°08'1020.6
2018-Apr-21 01:31N 43°28' E 009°15'1020.7
2018-Apr-21 01:01N 43°20' E 009°23'1020.3
2018-Apr-21 00:31N 43°11' E 009°31'1019.6
2018-Apr-21 00:00N 43°03' E 009°37'1019.9
2018-Apr-20 23:31N 42°54' E 009°43'1019.6
2018-Apr-20 23:00N 42°47' E 009°53'1019.5
2018-Apr-20 22:30N 42°42' E 010°05'263 9.2
2018-Apr-19 17:54N 39°04' E 013°19'718.1
2018-Apr-19 17:31N 38°57' E 013°22'917.9
2018-Apr-19 17:01N 38°49' E 013°27'917.2
2018-Apr-19 16:30N 38°40' E 013°30'917.7
2018-Apr-19 16:00N 38°32' E 013°29'917.5
2018-Apr-19 15:30N 38°23' E 013°28'917.5
2018-Apr-19 15:00N 38°14' E 013°27'713.8
2018-Apr-19 14:30N 38°08' E 013°24'2 3.6
2018-Apr-19 14:00N 38°08' E 013°22'0 0.0
2018-Apr-19 13:30N 38°08' E 013°22'0 0.0
2018-Apr-19 13:00N 38°08' E 013°22'0 0.0
2018-Apr-19 12:27N 38°08' E 013°22'0 0.0
2018-Apr-19 12:00N 38°08' E 013°22'0 0.0
2018-Apr-19 11:30N 38°08' E 013°22'0 0.0
2018-Apr-19 11:00N 38°08' E 013°22'0 0.0
2018-Apr-19 10:30N 38°08' E 013°22'0 0.0
2018-Apr-19 10:00N 38°08' E 013°22'0 0.0
2018-Apr-19 09:30N 38°08' E 013°22'0 0.0
2018-Apr-19 09:00N 38°08' E 013°22'0 0.0
2018-Apr-19 08:30N 38°08' E 013°22'0 0.0
2018-Apr-19 08:00N 38°08' E 013°22'0 0.0
2018-Apr-19 07:30N 38°08' E 013°22'0 0.0
2018-Apr-19 07:00N 38°08' E 013°22'0 0.0
2018-Apr-19 06:30N 38°08' E 013°22'0 0.0
2018-Apr-19 06:00N 38°08' E 013°22'0 0.7
2018-Apr-19 05:30N 38°08' E 013°22'1 1.8
2018-Apr-19 05:01N 38°08' E 013°24'4 8.9
2018-Apr-19 04:31N 38°12' E 013°25'510.3
2018-Apr-19 04:01N 38°16' E 013°21'510.6
2018-Apr-19 03:30N 38°18' E 013°15'611.2
2018-Apr-19 03:01N 38°19' E 013°08'510.9
2018-Apr-19 02:31N 38°20' E 013°01'510.2
2018-Apr-19 02:00N 38°20' E 012°54'510.3
2018-Apr-19 01:30N 38°20' E 012°48'611.9
2018-Apr-19 01:01N 38°21' E 012°40'612.3
2018-Apr-19 00:31N 38°21' E 012°32'712.5
2018-Apr-18 23:59N 38°22' E 012°24'612.4
2018-Apr-18 23:28N 38°22' E 012°16'612.2
2018-Apr-18 22:59N 38°22' E 012°08'15413.7
2018-Apr-18 11:41N 38°35' E 008°52'314.8
2018-Apr-18 11:28N 38°35' E 008°48'815.2
2018-Apr-18 10:58N 38°36' E 008°38'19115.7
2018-Apr-17 22:47N 38°51' E 004°34'515.7
2018-Apr-17 22:29N 38°52' E 004°28'1215.9
2018-Apr-17 21:45N 38°53' E 004°13'516.0
2018-Apr-17 21:26N 38°53' E 004°06'715.8
2018-Apr-17 21:00N 38°54' E 003°58'815.5
2018-Apr-17 20:30N 38°54' E 003°48'815.4
2018-Apr-17 20:00N 38°55' E 003°38'815.6
2018-Apr-17 19:30N 38°55' E 003°28'815.5
2018-Apr-17 19:00N 38°56' E 003°18'815.5
2018-Apr-17 18:30N 38°57' E 003°08'815.5
2018-Apr-17 18:00N 38°57' E 002°58'714.3
2018-Apr-17 17:30N 39°02' E 002°52'815.7
2018-Apr-17 17:00N 39°10' E 002°48'815.3
2018-Apr-17 16:30N 39°17' E 002°45'815.2
2018-Apr-17 16:00N 39°24' E 002°41'714.4
2018-Apr-17 15:30N 39°31' E 002°39'2 4.7
2018-Apr-17 15:00N 39°33' E 002°38'0 0.0
2018-Apr-17 14:30N 39°33' E 002°38'0 0.0
2018-Apr-17 14:00N 39°33' E 002°38'0 0.0
2018-Apr-17 13:30N 39°33' E 002°38'0 0.0
2018-Apr-17 13:00N 39°33' E 002°38'0 0.0
2018-Apr-17 12:30N 39°33' E 002°38'0 0.0
2018-Apr-17 12:00N 39°33' E 002°38'0 0.0
2018-Apr-17 11:30N 39°33' E 002°38'0 0.0
2018-Apr-17 11:00N 39°33' E 002°38'0 0.0
2018-Apr-17 10:30N 39°33' E 002°38'0 0.0
2018-Apr-17 10:00N 39°33' E 002°38'0 0.0
2018-Apr-17 09:30N 39°33' E 002°38'0 0.0
2018-Apr-17 09:00N 39°33' E 002°38'0 0.0
2018-Apr-17 08:30N 39°33' E 002°38'0 0.0
2018-Apr-17 08:00N 39°33' E 002°38'0 0.0
2018-Apr-17 07:30N 39°33' E 002°38'0 0.0
2018-Apr-17 07:00N 39°33' E 002°38'0 0.3
2018-Apr-17 06:30N 39°33' E 002°38'1 2.4
2018-Apr-17 06:00N 39°32' E 002°39'4 8.1
2018-Apr-17 05:30N 39°28' E 002°36'4 8.7
2018-Apr-17 05:00N 39°25' E 002°33'4 8.4
2018-Apr-17 04:30N 39°25' E 002°27'510.2
2018-Apr-17 04:00N 39°28' E 002°22'8710.7
2018-Apr-16 19:56N 40°54' E 002°12'511.0
2018-Apr-16 19:30N 40°59' E 002°11'611.5
2018-Apr-16 19:01N 41°05' E 002°11'611.4
2018-Apr-16 18:30N 41°10' E 002°11'510.9
2018-Apr-16 18:01N 41°16' E 002°11'5 9.6
2018-Apr-16 17:30N 41°21' E 002°10'0 0.8
2018-Apr-16 16:58N 41°21' E 002°10'0 0.0
2018-Apr-16 16:25N 41°21' E 002°10'0 0.0
2018-Apr-16 15:58N 41°21' E 002°10'0 0.0
2018-Apr-16 15:28N 41°21' E 002°10'0 0.0
2018-Apr-16 14:58N 41°21' E 002°10'0 0.0
2018-Apr-16 14:28N 41°21' E 002°10'0 0.0
2018-Apr-16 13:58N 41°21' E 002°10'0 0.0
2018-Apr-16 13:28N 41°21' E 002°10'0 0.0
2018-Apr-16 12:58N 41°21' E 002°10'0 0.0
2018-Apr-16 12:28N 41°21' E 002°10'0 0.0
2018-Apr-16 11:58N 41°21' E 002°10'0 0.0
2018-Apr-16 11:28N 41°21' E 002°10'0 0.0
2018-Apr-16 10:58N 41°21' E 002°10'0 0.0
2018-Apr-16 10:28N 41°21' E 002°10'0 0.0
2018-Apr-16 09:58N 41°21' E 002°10'0 0.0
2018-Apr-16 09:28N 41°21' E 002°10'0 0.0
2018-Apr-16 08:58N 41°21' E 002°10'0 0.0
2018-Apr-16 08:28N 41°21' E 002°10'0 0.0
2018-Apr-16 07:58N 41°21' E 002°10'0 0.0
2018-Apr-16 07:28N 41°21' E 002°10'0 0.0
2018-Apr-16 06:58N 41°21' E 002°10'0 0.4
2018-Apr-16 06:30N 41°21' E 002°10'2 4.0
2018-Apr-16 06:00N 41°19' E 002°10'5 9.3
2018-Apr-16 05:30N 41°16' E 002°14'612.5
2018-Apr-16 05:00N 41°18' E 002°22'714.1
2018-Apr-16 04:31N 41°22' E 002°30'714.1
2018-Apr-16 04:01N 41°26' E 002°37'814.0
2018-Apr-16 03:27N 41°31' E 002°46'1013.4
2018-Apr-16 02:43N 41°37' E 002°56'313.2
2018-Apr-16 02:30N 41°38' E 002°59'9413.4
2018-Apr-15 19:28N 42°43' E 004°31'613.2
2018-Apr-15 19:00N 42°48' E 004°37'713.5
2018-Apr-15 18:30N 42°52' E 004°44'612.9
2018-Apr-15 18:00N 42°57' E 004°50'712.6
2018-Apr-15 17:27N 43°02' E 004°56'612.8
2018-Apr-15 17:00N 43°06' E 005°01'612.8
2018-Apr-15 16:30N 43°12' E 005°06'612.9
2018-Apr-15 16:00N 43°17' E 005°11'611.8
2018-Apr-15 15:30N 43°20' E 005°18'1 2.8
2018-Apr-15 14:58N 43°21' E 005°20'0 0.0
2018-Apr-15 14:28N 43°21' E 005°20'0 0.0
2018-Apr-15 13:58N 43°21' E 005°20'0 0.0
2018-Apr-15 13:28N 43°21' E 005°20'0 0.0
2018-Apr-15 12:58N 43°21' E 005°20'0 0.0
2018-Apr-15 12:28N 43°21' E 005°20'0 0.0
2018-Apr-15 11:58N 43°21' E 005°20'0 0.0
2018-Apr-15 11:28N 43°21' E 005°20'0 0.0
2018-Apr-15 10:58N 43°21' E 005°20'0 0.0
2018-Apr-15 10:28N 43°21' E 005°20'0 0.0
2018-Apr-15 09:58N 43°21' E 005°20'0 0.0
2018-Apr-15 09:28N 43°21' E 005°20'0 0.0
2018-Apr-15 08:58N 43°21' E 005°20'0 0.0
2018-Apr-15 08:28N 43°21' E 005°20'0 0.0
2018-Apr-15 07:58N 43°21' E 005°20'0 0.0
2018-Apr-15 07:28N 43°21' E 005°20'0 0.0
2018-Apr-15 06:58N 43°21' E 005°20'0 0.0
2018-Apr-15 06:28N 43°21' E 005°20'0 0.2
2018-Apr-15 05:59N 43°21' E 005°20'2 3.8
2018-Apr-15 05:30N 43°21' E 005°17'5 9.2
2018-Apr-15 05:00N 43°18' E 005°13'714.0
2018-Apr-15 04:29N 43°11' E 005°13'  

Dump ship's entire track history